createdAt,value
2017-07-17T00:00:02.677Z,24.1
2017-07-17T00:00:43.133Z,24.13
2017-07-17T00:01:23.590Z,24.14
2017-07-17T00:02:04.049Z,24.13
2017-07-17T00:02:44.500Z,24.11
2017-07-17T00:03:24.960Z,24.07
2017-07-17T00:04:05.426Z,24.14
2017-07-17T00:04:45.885Z,24.11
2017-07-17T00:05:26.344Z,24.07
2017-07-17T00:06:06.819Z,24.07
2017-07-17T00:06:47.278Z,24.07
2017-07-17T00:07:27.739Z,24.11
2017-07-17T00:08:08.200Z,24.13
2017-07-17T00:08:48.662Z,24.07
2017-07-17T00:09:29.114Z,24.07
2017-07-17T00:10:09.564Z,24.11
2017-07-17T00:10:50.022Z,24.11
2017-07-17T00:11:30.483Z,24.14
2017-07-17T00:12:10.937Z,24.1
2017-07-17T00:12:51.389Z,24.07
2017-07-17T00:13:31.842Z,24.1
2017-07-17T00:14:12.292Z,24.11
2017-07-17T00:14:52.749Z,24.1
2017-07-17T00:15:33.213Z,24.1
2017-07-17T00:16:13.667Z,24.14
2017-07-17T00:16:54.184Z,24.13
2017-07-17T00:17:34.639Z,24.09
2017-07-17T00:18:15.097Z,24.1
2017-07-17T00:18:55.552Z,24.06
2017-07-17T00:19:36.009Z,24.1
2017-07-17T00:20:16.468Z,24.04
2017-07-17T00:20:56.925Z,24.09
2017-07-17T00:21:37.379Z,24.07
2017-07-17T00:22:17.837Z,24.07
2017-07-17T00:22:58.321Z,24.11
2017-07-17T00:23:38.785Z,24.06
2017-07-17T00:24:19.239Z,24.09
2017-07-17T00:24:59.693Z,24.09
2017-07-17T00:25:40.155Z,24.1
2017-07-17T00:26:20.613Z,24
2017-07-17T00:27:01.073Z,24.09
2017-07-17T00:27:41.529Z,24.01
2017-07-17T00:28:21.988Z,24.06
2017-07-17T00:29:02.442Z,24.11
2017-07-17T00:29:42.906Z,24.07
2017-07-17T00:30:23.381Z,24.07
2017-07-17T00:31:03.842Z,24.07
2017-07-17T00:31:44.300Z,24.03
2017-07-17T00:32:24.760Z,24.09
2017-07-17T00:33:05.217Z,24.04
2017-07-17T00:33:45.672Z,24.04
2017-07-17T00:34:26.129Z,24.1
2017-07-17T00:35:06.584Z,24.06
2017-07-17T00:35:47.040Z,24.09
2017-07-17T00:36:27.498Z,24.03
2017-07-17T00:37:07.953Z,24.1
2017-07-17T00:37:48.406Z,24.06
2017-07-17T00:38:28.864Z,24.11
2017-07-17T00:39:09.339Z,24.07
2017-07-17T00:39:49.800Z,24.11
2017-07-17T00:40:30.260Z,24.09
2017-07-17T00:41:10.710Z,24.11
2017-07-17T00:41:51.166Z,24.09
2017-07-17T00:42:31.627Z,24.01
2017-07-17T00:43:12.084Z,24.04
2017-07-17T00:43:52.540Z,24.07
2017-07-17T00:44:33.002Z,24.04
2017-07-17T00:45:13.450Z,24.06
2017-07-17T00:45:53.902Z,24.07
2017-07-17T00:46:34.362Z,24.07
2017-07-17T00:47:14.818Z,24.09
2017-07-17T00:47:55.270Z,24.01
2017-07-17T00:48:35.726Z,24.06
2017-07-17T00:49:16.195Z,24.01
2017-07-17T00:49:56.646Z,24.03
2017-07-17T00:50:37.108Z,24.1
2017-07-17T00:51:17.571Z,24.1
2017-07-17T00:51:58.023Z,24.11
2017-07-17T00:52:38.477Z,24.09
2017-07-17T00:53:18.940Z,24.1
2017-07-17T00:53:59.437Z,24.09
2017-07-17T00:54:39.883Z,24.06
2017-07-17T00:55:20.338Z,24.07
2017-07-17T00:56:00.793Z,24.09
2017-07-17T00:56:41.252Z,24.04
2017-07-17T00:57:21.708Z,24.04
2017-07-17T00:58:02.165Z,24.06
2017-07-17T00:58:42.624Z,24.1
2017-07-17T00:59:23.082Z,24.06
2017-07-17T01:00:03.607Z,24.03
2017-07-17T01:00:44.057Z,24.11
2017-07-17T01:01:24.510Z,24.03
2017-07-17T01:02:04.968Z,24.1
2017-07-17T01:02:45.425Z,24.03
2017-07-17T01:03:25.884Z,24.11
2017-07-17T01:04:06.338Z,24.09
2017-07-17T01:04:46.796Z,24.07
2017-07-17T01:05:27.252Z,24.04
2017-07-17T01:06:07.704Z,24.01
2017-07-17T01:06:48.161Z,24.1
2017-07-17T01:07:28.620Z,24.04
2017-07-17T01:08:09.048Z,24.04
2017-07-17T01:08:49.505Z,24.07
2017-07-17T01:09:29.960Z,24.06
2017-07-17T01:10:10.415Z,24.1
2017-07-17T01:10:50.870Z,24.01
2017-07-17T01:11:31.323Z,24.07
2017-07-17T01:12:11.776Z,24.09
2017-07-17T01:12:52.228Z,24.1
2017-07-17T01:13:32.692Z,24.07
2017-07-17T01:14:13.150Z,24.07
2017-07-17T01:14:53.602Z,24.01
2017-07-17T01:15:34.058Z,24.09
2017-07-17T01:16:14.517Z,24.03
2017-07-17T01:16:54.979Z,24.01
2017-07-17T01:17:35.432Z,24.01
2017-07-17T01:18:15.887Z,24.06
2017-07-17T01:18:56.345Z,24.1
2017-07-17T01:19:36.800Z,24.03
2017-07-17T01:20:17.255Z,24.09
2017-07-17T01:20:57.709Z,24.07
2017-07-17T01:21:38.286Z,23.96
2017-07-17T01:22:18.675Z,24.06
2017-07-17T01:22:59.147Z,23.94
2017-07-17T01:23:39.594Z,24.03
2017-07-17T01:24:20.053Z,23.99
2017-07-17T01:25:00.504Z,24
2017-07-17T01:25:40.958Z,23.99
2017-07-17T01:26:21.416Z,23.95
2017-07-17T01:27:01.871Z,23.95
2017-07-17T01:27:42.324Z,23.99
2017-07-17T01:28:22.777Z,23.95
2017-07-17T01:29:03.236Z,23.95
2017-07-17T01:29:43.696Z,23.96
2017-07-17T01:30:24.146Z,23.95
2017-07-17T01:31:04.598Z,23.96
2017-07-17T01:31:45.049Z,23.95
2017-07-17T01:32:25.503Z,23.96
2017-07-17T01:33:05.962Z,24.04
2017-07-17T01:33:46.421Z,24.01
2017-07-17T01:34:26.877Z,23.91
2017-07-17T01:35:07.327Z,23.95
2017-07-17T01:35:47.781Z,23.94
2017-07-17T01:36:28.249Z,23.92
2017-07-17T01:37:08.704Z,23.92
2017-07-17T01:37:49.159Z,23.91
2017-07-17T01:38:29.619Z,23.96
2017-07-17T01:39:10.085Z,23.99
2017-07-17T01:39:50.528Z,23.88
2017-07-17T01:40:31.006Z,23.92
2017-07-17T01:41:11.460Z,23.96
2017-07-17T01:41:51.918Z,23.91
2017-07-17T01:42:32.372Z,23.95
2017-07-17T01:43:12.826Z,23.94
2017-07-17T01:45:25.660Z,23.85
2017-07-17T01:46:06.138Z,23.79
2017-07-17T01:46:46.697Z,23.79
2017-07-17T01:47:27.027Z,23.85
2017-07-17T01:48:07.485Z,23.85
2017-07-17T01:48:47.945Z,23.76
2017-07-17T01:49:28.401Z,23.82
2017-07-17T01:50:08.854Z,23.77
2017-07-17T01:50:49.312Z,23.86
2017-07-17T01:51:29.773Z,23.82
2017-07-17T01:52:10.224Z,23.82
2017-07-17T01:52:50.679Z,23.85
2017-07-17T01:53:31.137Z,23.84
2017-07-17T01:54:11.596Z,23.84
2017-07-17T01:54:52.054Z,23.88
2017-07-17T01:55:32.508Z,23.82
2017-07-17T01:56:12.962Z,23.89
2017-07-17T01:56:53.448Z,23.94
2017-07-17T01:57:33.906Z,23.85
2017-07-17T01:58:14.358Z,23.92
2017-07-17T01:58:54.812Z,23.92
2017-07-17T01:59:35.271Z,23.84
2017-07-17T02:00:15.731Z,23.95
2017-07-17T02:00:56.184Z,23.91
2017-07-17T02:01:36.663Z,23.86
2017-07-17T02:02:17.118Z,23.91
2017-07-17T02:02:57.572Z,23.89
2017-07-17T02:03:38.032Z,23.94
2017-07-17T02:04:18.488Z,23.94
2017-07-17T02:04:58.939Z,23.85
2017-07-17T02:05:39.385Z,23.91
2017-07-17T02:06:19.840Z,23.89
2017-07-17T02:07:00.301Z,23.95
2017-07-17T02:07:40.756Z,23.86
2017-07-17T02:08:21.212Z,23.92
2017-07-17T02:09:01.672Z,23.94
2017-07-17T02:09:42.135Z,24.01
2017-07-17T02:10:22.588Z,23.91
2017-07-17T02:11:03.039Z,23.99
2017-07-17T02:11:43.491Z,23.92
2017-07-17T02:12:23.948Z,23.92
2017-07-17T02:13:04.405Z,23.99
2017-07-17T02:13:44.865Z,23.92
2017-07-17T02:14:25.319Z,23.99
2017-07-17T02:15:05.771Z,23.99
2017-07-17T02:15:46.227Z,23.89
2017-07-17T02:16:26.691Z,23.95
2017-07-17T02:17:07.146Z,23.94
2017-07-17T02:17:47.601Z,23.92
2017-07-17T02:18:28.064Z,23.96
2017-07-17T02:19:08.514Z,23.92
2017-07-17T02:19:48.966Z,23.94
2017-07-17T02:20:29.418Z,23.94
2017-07-17T02:21:09.877Z,23.96
2017-07-17T02:21:50.334Z,23.96
2017-07-17T02:22:31.255Z,23.95
2017-07-17T02:23:11.707Z,23.96
2017-07-17T02:23:52.166Z,23.92
2017-07-17T02:24:32.615Z,23.89
2017-07-17T02:25:13.075Z,23.94
2017-07-17T02:25:53.535Z,23.94
2017-07-17T02:26:34.008Z,23.89
2017-07-17T02:27:14.468Z,24
2017-07-17T02:27:54.922Z,23.95
2017-07-17T02:28:35.378Z,23.91
2017-07-17T02:29:15.832Z,23.92
2017-07-17T02:29:56.290Z,23.92
2017-07-17T02:30:36.749Z,23.94
2017-07-17T02:31:17.205Z,23.95
2017-07-17T02:31:57.661Z,23.92
2017-07-17T02:32:38.119Z,23.89
2017-07-17T02:33:18.574Z,24.01
2017-07-17T02:33:59.032Z,23.92
2017-07-17T02:34:39.485Z,23.91
2017-07-17T02:35:19.950Z,24
2017-07-17T02:36:00.407Z,23.99
2017-07-17T02:36:40.867Z,23.91
2017-07-17T02:37:21.326Z,23.99
2017-07-17T02:38:01.786Z,23.95
2017-07-17T02:38:42.241Z,23.89
2017-07-17T02:39:22.686Z,23.92
2017-07-17T02:40:03.143Z,23.91
2017-07-17T02:40:43.589Z,23.89
2017-07-17T02:41:24.056Z,23.88
2017-07-17T02:42:04.510Z,23.92
2017-07-17T02:42:45.047Z,23.92
2017-07-17T02:43:25.500Z,23.89
2017-07-17T02:44:05.957Z,23.96
2017-07-17T02:44:46.451Z,23.94
2017-07-17T02:45:26.908Z,23.92
2017-07-17T02:46:07.365Z,23.91
2017-07-17T02:46:47.823Z,23.92
2017-07-17T02:47:28.282Z,23.94
2017-07-17T02:48:08.740Z,23.92
2017-07-17T02:48:49.179Z,23.91
2017-07-17T02:50:26.810Z,23.95
2017-07-17T02:51:07.263Z,23.92
2017-07-17T02:51:47.765Z,23.89
2017-07-17T02:52:28.181Z,24.01
2017-07-17T02:53:08.637Z,23.89
2017-07-17T02:53:49.089Z,23.89
2017-07-17T02:54:29.546Z,23.91
2017-07-17T02:55:09.998Z,23.86
2017-07-17T02:55:50.452Z,23.94
2017-07-17T02:56:30.896Z,23.89
2017-07-17T02:57:11.359Z,23.89
2017-07-17T02:57:51.814Z,23.88
2017-07-17T02:58:32.270Z,23.94
2017-07-17T02:59:12.722Z,23.91
2017-07-17T02:59:53.180Z,23.91
2017-07-17T03:00:33.642Z,23.91
2017-07-17T03:01:14.102Z,23.91
2017-07-17T03:01:54.553Z,23.99
2017-07-17T03:02:35.013Z,23.92
2017-07-17T03:03:15.477Z,23.92
2017-07-17T03:03:55.933Z,23.91
2017-07-17T03:04:36.429Z,23.88
2017-07-17T03:05:16.848Z,23.91
2017-07-17T03:05:57.301Z,23.89
2017-07-17T03:06:37.757Z,23.89
2017-07-17T03:07:18.210Z,23.91
2017-07-17T03:07:58.703Z,23.91
2017-07-17T03:08:39.161Z,23.89
2017-07-17T03:09:19.620Z,23.84
2017-07-17T03:10:00.076Z,23.88
2017-07-17T03:10:40.534Z,23.84
2017-07-17T03:11:20.990Z,23.89
2017-07-17T03:12:01.444Z,23.82
2017-07-17T03:12:41.902Z,23.81
2017-07-17T03:13:22.356Z,23.85
2017-07-17T03:14:02.817Z,23.85
2017-07-17T03:14:43.276Z,23.86
2017-07-17T03:15:23.731Z,23.82
2017-07-17T03:16:04.190Z,23.79
2017-07-17T03:16:44.649Z,23.85
2017-07-17T03:17:25.103Z,23.79
2017-07-17T03:18:05.549Z,23.77
2017-07-17T03:18:46.005Z,23.82
2017-07-17T03:19:26.454Z,23.81
2017-07-17T03:20:06.916Z,23.88
2017-07-17T03:20:47.358Z,23.85
2017-07-17T03:21:27.814Z,23.77
2017-07-17T03:22:08.269Z,23.86
2017-07-17T03:22:49.418Z,23.76
2017-07-17T03:23:29.879Z,23.79
2017-07-17T03:24:10.329Z,23.79
2017-07-17T03:24:50.799Z,23.79
2017-07-17T03:25:31.254Z,23.76
2017-07-17T03:26:11.714Z,23.79
2017-07-17T03:26:52.156Z,23.81
2017-07-17T03:27:32.610Z,23.76
2017-07-17T03:28:13.064Z,23.74
2017-07-17T03:28:53.518Z,23.74
2017-07-17T03:29:33.959Z,23.79
2017-07-17T03:30:14.411Z,23.79
2017-07-17T03:30:54.871Z,23.82
2017-07-17T03:31:35.335Z,23.88
2017-07-17T03:32:15.793Z,23.86
2017-07-17T03:32:56.236Z,23.82
2017-07-17T03:33:36.692Z,23.74
2017-07-17T03:34:17.141Z,23.86
2017-07-17T03:34:57.607Z,23.76
2017-07-17T03:35:38.058Z,23.88
2017-07-17T03:36:18.511Z,23.85
2017-07-17T03:36:58.967Z,23.88
2017-07-17T03:37:39.421Z,23.84
2017-07-17T03:38:19.879Z,23.79
2017-07-17T03:39:00.340Z,23.86
2017-07-17T03:39:40.790Z,23.86
2017-07-17T03:40:21.254Z,23.89
2017-07-17T03:41:01.716Z,23.91
2017-07-17T03:41:42.163Z,23.94
2017-07-17T03:42:22.618Z,24.04
2017-07-17T03:43:03.075Z,24.07
2017-07-17T03:43:43.521Z,24.04
2017-07-17T03:44:23.979Z,24.13
2017-07-17T03:45:04.428Z,24.13
2017-07-17T03:45:44.885Z,24.09
2017-07-17T03:46:25.331Z,24.14
2017-07-17T03:47:05.782Z,24.16
2017-07-17T03:47:46.235Z,24.16
2017-07-17T03:48:26.699Z,24.16
2017-07-17T03:49:07.145Z,24.16
2017-07-17T03:49:47.638Z,24.18
2017-07-17T03:50:28.064Z,24.14
2017-07-17T03:51:08.510Z,24.19
2017-07-17T03:51:48.969Z,24.18
2017-07-17T03:52:29.411Z,24.09
2017-07-17T03:53:09.867Z,24.13
2017-07-17T03:53:50.333Z,24.18
2017-07-17T03:54:30.791Z,24.13
2017-07-17T03:55:11.238Z,24.14
2017-07-17T03:55:51.696Z,24.09
2017-07-17T03:56:32.150Z,24.21
2017-07-17T03:57:12.592Z,24.19
2017-07-17T03:57:53.046Z,24.22
2017-07-17T03:58:33.501Z,24.26
2017-07-17T03:59:13.956Z,24.25
2017-07-17T03:59:54.408Z,24.19
2017-07-17T04:00:34.858Z,24.25
2017-07-17T04:01:15.316Z,24.24
2017-07-17T04:01:55.770Z,24.26
2017-07-17T04:02:36.227Z,24.22
2017-07-17T04:03:16.685Z,24.28
2017-07-17T04:03:57.141Z,24.29
2017-07-17T04:04:37.601Z,24.26
2017-07-17T04:05:18.055Z,24.29
2017-07-17T04:05:58.504Z,24.28
2017-07-17T04:06:38.959Z,24.29
2017-07-17T04:07:19.410Z,24.31
2017-07-17T04:07:59.861Z,24.32
2017-07-17T04:08:40.317Z,24.32
2017-07-17T04:09:20.772Z,24.25
2017-07-17T04:10:01.226Z,24.29
2017-07-17T04:10:41.681Z,24.31
2017-07-17T04:11:22.131Z,24.28
2017-07-17T04:12:02.590Z,24.28
2017-07-17T04:12:43.043Z,24.29
2017-07-17T04:13:23.510Z,24.31
2017-07-17T04:14:03.957Z,24.26
2017-07-17T04:14:44.413Z,24.26
2017-07-17T04:15:24.875Z,24.34
2017-07-17T04:16:05.331Z,24.32
2017-07-17T04:16:45.790Z,24.31
2017-07-17T04:17:26.238Z,24.38
2017-07-17T04:18:06.685Z,24.38
2017-07-17T04:18:47.137Z,24.41
2017-07-17T04:19:27.597Z,24.34
2017-07-17T04:20:08.057Z,24.34
2017-07-17T04:20:48.509Z,24.41
2017-07-17T04:21:28.961Z,24.31
2017-07-17T04:22:09.424Z,24.31
2017-07-17T04:22:49.874Z,24.29
2017-07-17T04:23:30.335Z,24.29
2017-07-17T04:24:10.801Z,24.38
2017-07-17T04:24:51.262Z,24.32
2017-07-17T04:25:32.454Z,24.34
2017-07-17T04:26:12.909Z,24.31
2017-07-17T04:26:53.358Z,24.32
2017-07-17T04:27:33.793Z,24.43
2017-07-17T04:28:14.413Z,24.32
2017-07-17T04:28:54.820Z,24.36
2017-07-17T04:29:35.279Z,24.37
2017-07-17T04:30:16.019Z,24.43
2017-07-17T04:30:56.968Z,24.37
2017-07-17T04:31:37.423Z,24.34
2017-07-17T04:32:17.918Z,24.37
2017-07-17T04:32:58.377Z,24.32
2017-07-17T04:33:38.851Z,24.4
2017-07-17T04:34:19.282Z,24.37
2017-07-17T04:34:59.739Z,24.34
2017-07-17T04:35:40.190Z,24.37
2017-07-17T04:36:20.642Z,24.37
2017-07-17T04:37:01.163Z,24.37
2017-07-17T04:37:41.619Z,24.32
2017-07-17T04:38:22.914Z,24.32
2017-07-17T04:39:03.473Z,24.36
2017-07-17T04:39:43.918Z,24.36
2017-07-17T04:40:24.566Z,24.43
2017-07-17T04:41:06.119Z,24.31
2017-07-17T04:43:19.332Z,24.31
2017-07-17T04:43:59.798Z,24.34
2017-07-17T04:44:40.256Z,24.32
2017-07-17T04:45:20.700Z,24.37
2017-07-17T04:46:01.149Z,24.37
2017-07-17T04:46:41.603Z,24.31
2017-07-17T04:47:22.062Z,24.34
2017-07-17T04:48:02.515Z,24.36
2017-07-17T04:48:42.968Z,24.4
2017-07-17T04:49:23.406Z,24.41
2017-07-17T04:50:03.866Z,24.36
2017-07-17T04:50:44.322Z,24.32
2017-07-17T04:51:24.772Z,24.31
2017-07-17T04:52:05.226Z,24.32
2017-07-17T04:52:45.693Z,24.32
2017-07-17T04:53:26.150Z,24.25
2017-07-17T04:54:06.604Z,24.28
2017-07-17T04:54:47.095Z,24.24
2017-07-17T04:55:27.547Z,24.28
2017-07-17T04:56:07.999Z,24.29
2017-07-17T04:56:48.452Z,24.24
2017-07-17T04:57:29.096Z,24.37
2017-07-17T04:58:09.548Z,24.32
2017-07-17T04:58:49.995Z,24.29
2017-07-17T04:59:30.449Z,24.38
2017-07-17T05:00:10.896Z,24.32
2017-07-17T05:00:51.381Z,24.4
2017-07-17T05:01:31.836Z,24.36
2017-07-17T05:02:12.292Z,24.37
2017-07-17T05:02:52.756Z,24.29
2017-07-17T05:03:33.206Z,24.36
2017-07-17T05:04:13.662Z,24.34
2017-07-17T05:04:54.115Z,24.29
2017-07-17T05:05:34.572Z,24.26
2017-07-17T05:06:15.115Z,24.32
2017-07-17T05:06:55.570Z,24.36
2017-07-17T05:07:36.026Z,24.34
2017-07-17T05:08:16.485Z,24.4
2017-07-17T05:10:14.494Z,24.34
2017-07-17T05:10:54.950Z,24.31
2017-07-17T05:11:35.431Z,24.28
2017-07-17T05:12:15.876Z,24.41
2017-07-17T05:12:56.329Z,24.34
2017-07-17T05:13:36.802Z,24.37
2017-07-17T05:14:17.259Z,24.32
2017-07-17T05:14:58.603Z,24.32
2017-07-17T05:15:38.462Z,24.4
2017-07-17T05:16:18.913Z,24.34
2017-07-17T05:16:59.470Z,24.37
2017-07-17T05:17:39.872Z,24.34
2017-07-17T05:18:20.322Z,24.34
2017-07-17T05:19:00.770Z,24.34
2017-07-17T05:19:41.226Z,24.32
2017-07-17T05:20:21.678Z,24.38
2017-07-17T05:21:02.501Z,24.37
2017-07-17T05:21:43.024Z,24.34
2017-07-17T05:22:23.490Z,24.34
2017-07-17T05:23:03.945Z,24.38
2017-07-17T05:23:44.389Z,24.34
2017-07-17T05:24:24.847Z,24.34
2017-07-17T05:25:05.640Z,24.38
2017-07-17T05:25:46.405Z,24.31
2017-07-17T05:26:26.881Z,24.44
2017-07-17T05:27:07.327Z,24.47
2017-07-17T05:27:47.785Z,24.4
2017-07-17T05:28:28.237Z,24.43
2017-07-17T05:29:08.927Z,24.44
2017-07-17T05:29:49.369Z,24.44
2017-07-17T05:31:43.298Z,24.43
2017-07-17T05:32:23.751Z,24.4
2017-07-17T05:33:04.218Z,24.37
2017-07-17T05:33:44.654Z,24.43
2017-07-17T05:34:25.152Z,24.38
2017-07-17T05:35:05.602Z,24.4
2017-07-17T05:35:46.057Z,24.46
2017-07-17T05:36:26.866Z,24.43
2017-07-17T05:37:07.256Z,24.37
2017-07-17T05:37:47.709Z,24.47
2017-07-17T05:38:28.163Z,24.4
2017-07-17T05:39:08.612Z,24.4
2017-07-17T05:39:49.063Z,24.43
2017-07-17T05:40:29.710Z,24.41
2017-07-17T05:41:10.157Z,24.44
2017-07-17T05:41:50.615Z,24.38
2017-07-17T05:42:31.067Z,24.46
2017-07-17T05:43:11.518Z,24.44
2017-07-17T05:43:51.966Z,24.41
2017-07-17T05:44:32.410Z,24.4
2017-07-17T05:45:12.866Z,24.44
2017-07-17T05:45:53.337Z,24.43
2017-07-17T05:46:34.708Z,24.37
2017-07-17T05:47:15.161Z,24.46
2017-07-17T05:47:55.616Z,24.44
2017-07-17T05:48:36.073Z,24.47
2017-07-17T05:49:16.534Z,24.31
2017-07-17T05:49:56.982Z,24.44
2017-07-17T05:50:37.439Z,24.46
2017-07-17T05:51:17.894Z,24.47
2017-07-17T05:51:58.352Z,24.43
2017-07-17T05:52:39.064Z,24.41
2017-07-17T05:53:19.458Z,24.48
2017-07-17T05:53:59.912Z,24.46
2017-07-17T05:54:40.368Z,24.4
2017-07-17T05:55:20.822Z,24.38
2017-07-17T05:56:01.285Z,24.46
2017-07-17T05:56:41.739Z,24.43
2017-07-17T05:57:22.200Z,24.47
2017-07-17T05:58:02.680Z,24.41
2017-07-17T05:58:43.095Z,24.46
2017-07-17T05:59:23.572Z,24.41
2017-07-17T06:00:04.004Z,24.46
2017-07-17T06:00:44.457Z,24.47
2017-07-17T06:01:24.917Z,24.43
2017-07-17T06:02:05.369Z,24.41
2017-07-17T06:02:45.823Z,24.41
2017-07-17T06:03:26.274Z,24.43
2017-07-17T06:04:06.730Z,24.44
2017-07-17T06:04:47.186Z,24.48
2017-07-17T06:05:27.639Z,24.46
2017-07-17T06:06:08.093Z,24.4
2017-07-17T06:06:48.554Z,24.46
2017-07-17T06:07:29.005Z,24.44
2017-07-17T06:08:09.458Z,24.47
2017-07-17T06:08:49.914Z,24.48
2017-07-17T06:09:30.366Z,24.5
2017-07-17T06:10:10.809Z,24.46
2017-07-17T06:10:51.267Z,24.5
2017-07-17T06:11:31.727Z,24.55
2017-07-17T06:12:12.173Z,24.5
2017-07-17T06:12:52.630Z,24.55
2017-07-17T06:13:33.106Z,24.55
2017-07-17T06:14:13.535Z,24.65
2017-07-17T06:14:53.997Z,24.5
2017-07-17T06:15:34.460Z,24.53
2017-07-17T06:16:14.913Z,24.56
2017-07-17T06:16:55.371Z,24.55
2017-07-17T06:17:35.824Z,24.61
2017-07-17T06:18:16.283Z,24.61
2017-07-17T06:18:56.730Z,24.59
2017-07-17T06:19:37.184Z,24.65
2017-07-17T06:20:17.641Z,24.61
2017-07-17T06:20:58.099Z,24.65
2017-07-17T06:21:38.543Z,24.63
2017-07-17T06:22:19.030Z,24.66
2017-07-17T06:22:59.514Z,24.63
2017-07-17T06:23:39.943Z,24.65
2017-07-17T06:24:20.398Z,24.68
2017-07-17T06:25:00.857Z,24.62
2017-07-17T06:25:41.305Z,24.59
2017-07-17T06:26:21.771Z,24.65
2017-07-17T06:27:02.225Z,24.62
2017-07-17T06:27:42.673Z,24.65
2017-07-17T06:28:23.126Z,24.66
2017-07-17T06:29:03.585Z,24.65
2017-07-17T06:29:44.040Z,24.66
2017-07-17T06:30:24.500Z,24.68
2017-07-17T06:31:04.953Z,24.65
2017-07-17T06:31:45.456Z,24.65
2017-07-17T06:32:25.871Z,24.66
2017-07-17T06:33:06.326Z,24.65
2017-07-17T06:33:46.782Z,24.77
2017-07-17T06:34:27.237Z,24.75
2017-07-17T06:35:07.696Z,24.66
2017-07-17T06:35:48.150Z,24.71
2017-07-17T06:36:28.606Z,24.74
2017-07-17T06:37:09.066Z,24.69
2017-07-17T06:37:49.522Z,24.78
2017-07-17T06:38:29.978Z,24.65
2017-07-17T06:39:10.431Z,24.77
2017-07-17T06:39:50.887Z,24.74
2017-07-17T06:40:31.342Z,24.71
2017-07-17T06:41:11.799Z,24.74
2017-07-17T06:41:52.251Z,24.77
2017-07-17T06:42:32.709Z,24.66
2017-07-17T06:43:13.159Z,24.78
2017-07-17T06:43:53.628Z,24.78
2017-07-17T06:44:34.084Z,24.81
2017-07-17T06:45:14.544Z,24.75
2017-07-17T06:45:55.003Z,24.79
2017-07-17T06:46:35.458Z,24.74
2017-07-17T06:47:16.051Z,24.78
2017-07-17T06:47:56.376Z,24.81
2017-07-17T06:48:36.811Z,24.78
2017-07-17T06:49:17.273Z,24.79
2017-07-17T06:49:57.725Z,24.75
2017-07-17T06:50:38.175Z,24.79
2017-07-17T06:51:18.629Z,24.78
2017-07-17T06:51:59.086Z,24.75
2017-07-17T06:52:39.536Z,24.77
2017-07-17T06:53:19.988Z,24.78
2017-07-17T06:54:00.436Z,24.69
2017-07-17T06:54:40.886Z,24.81
2017-07-17T06:55:21.329Z,24.79
2017-07-17T06:56:01.776Z,24.77
2017-07-17T06:56:42.224Z,24.75
2017-07-17T06:57:22.679Z,24.82
2017-07-17T06:58:03.137Z,24.75
2017-07-17T06:58:43.630Z,24.71
2017-07-17T06:59:24.048Z,24.82
2017-07-17T07:00:04.522Z,24.81
2017-07-17T07:00:44.979Z,24.84
2017-07-17T07:01:25.430Z,24.82
2017-07-17T07:02:05.901Z,24.84
2017-07-17T07:02:46.353Z,24.85
2017-07-17T07:03:26.803Z,24.84
2017-07-17T07:04:07.254Z,24.86
2017-07-17T07:04:47.708Z,24.79
2017-07-17T07:05:28.164Z,24.79
2017-07-17T07:06:08.619Z,24.85
2017-07-17T07:06:49.077Z,24.81
2017-07-17T07:07:29.544Z,24.82
2017-07-17T07:08:10.004Z,24.74
2017-07-17T07:08:50.471Z,24.82
2017-07-17T07:09:30.922Z,24.85
2017-07-17T07:10:11.378Z,24.82
2017-07-17T07:10:51.840Z,24.84
2017-07-17T07:11:32.282Z,24.82
2017-07-17T07:12:12.732Z,24.79
2017-07-17T07:12:53.185Z,24.85
2017-07-17T07:13:33.637Z,24.84
2017-07-17T07:14:14.115Z,24.77
2017-07-17T07:14:54.573Z,24.71
2017-07-17T07:15:35.021Z,24.82
2017-07-17T07:16:15.498Z,24.82
2017-07-17T07:16:55.939Z,24.82
2017-07-17T07:17:36.397Z,24.84
2017-07-17T07:18:16.856Z,24.77
2017-07-17T07:18:57.314Z,24.82
2017-07-17T07:19:37.764Z,24.82
2017-07-17T07:20:18.221Z,24.77
2017-07-17T07:20:58.667Z,24.85
2017-07-17T07:21:39.122Z,24.82
2017-07-17T07:22:19.603Z,24.77
2017-07-17T07:23:00.053Z,24.79
2017-07-17T07:23:40.505Z,24.82
2017-07-17T07:24:20.964Z,24.84
2017-07-17T07:25:01.423Z,24.85
2017-07-17T07:25:41.877Z,24.86
2017-07-17T07:26:22.334Z,24.82
2017-07-17T07:27:02.795Z,24.84
2017-07-17T07:27:43.246Z,24.86
2017-07-17T07:28:23.694Z,24.88
2017-07-17T07:29:04.149Z,24.86
2017-07-17T07:29:44.804Z,24.84
2017-07-17T07:30:25.242Z,24.89
2017-07-17T07:31:05.697Z,24.88
2017-07-17T07:31:46.141Z,24.88
2017-07-17T07:32:26.596Z,24.89
2017-07-17T07:33:07.047Z,24.92
2017-07-17T07:33:47.501Z,24.89
2017-07-17T07:34:27.955Z,24.94
2017-07-17T07:35:08.414Z,24.85
2017-07-17T07:35:48.870Z,24.89
2017-07-17T07:36:29.325Z,24.92
2017-07-17T07:37:09.781Z,24.86
2017-07-17T07:37:50.240Z,24.88
2017-07-17T07:38:30.700Z,24.85
2017-07-17T07:39:11.150Z,24.82
2017-07-17T07:39:51.614Z,24.92
2017-07-17T07:40:32.070Z,24.92
2017-07-17T07:41:12.523Z,24.85
2017-07-17T07:41:52.974Z,24.96
2017-07-17T07:42:33.434Z,24.93
2017-07-17T07:43:13.918Z,24.97
2017-07-17T07:43:54.367Z,24.93
2017-07-17T07:44:34.830Z,24.99
2017-07-17T07:45:15.282Z,24.93
2017-07-17T07:45:55.739Z,24.97
2017-07-17T07:46:36.196Z,25.04
2017-07-17T07:47:16.765Z,24.96
2017-07-17T07:47:57.211Z,24.99
2017-07-17T07:48:37.822Z,24.94
2017-07-17T07:49:18.281Z,24.97
2017-07-17T07:49:58.773Z,24.93
2017-07-17T07:50:39.356Z,25.01
2017-07-17T07:51:19.688Z,25.01
2017-07-17T07:52:00.168Z,24.96
2017-07-17T07:52:40.599Z,24.94
2017-07-17T07:53:21.062Z,24.99
2017-07-17T07:54:01.521Z,24.97
2017-07-17T07:54:41.978Z,24.96
2017-07-17T07:55:22.443Z,25
2017-07-17T07:56:02.896Z,24.94
2017-07-17T07:56:43.348Z,25
2017-07-17T07:57:23.941Z,24.97
2017-07-17T07:58:04.262Z,25
2017-07-17T07:58:44.705Z,25.06
2017-07-17T07:59:25.160Z,24.99
2017-07-17T08:00:05.651Z,25.01
2017-07-17T08:00:46.643Z,24.96
2017-07-17T08:01:27.123Z,24.97
2017-07-17T08:02:07.599Z,25.09
2017-07-17T08:02:48.055Z,24.97
2017-07-17T08:03:28.517Z,25.04
2017-07-17T08:04:08.964Z,25.09
2017-07-17T08:04:49.747Z,24.94
2017-07-17T08:05:30.179Z,25
2017-07-17T08:06:10.623Z,25.06
2017-07-17T08:06:51.078Z,25.09
2017-07-17T08:07:31.521Z,24.99
2017-07-17T08:08:11.974Z,25.09
2017-07-17T08:08:52.432Z,25.03
2017-07-17T08:09:32.889Z,25.06
2017-07-17T08:10:13.345Z,25
2017-07-17T08:10:53.849Z,25.14
2017-07-17T08:11:34.306Z,24.99
2017-07-17T08:12:14.759Z,25.04
2017-07-17T08:12:55.294Z,25
2017-07-17T08:13:35.784Z,25.03
2017-07-17T08:14:16.249Z,24.97
2017-07-17T08:14:56.709Z,24.96
2017-07-17T08:15:37.166Z,25
2017-07-17T08:16:17.722Z,25
2017-07-17T08:16:58.322Z,25.09
2017-07-17T08:17:38.982Z,25
2017-07-17T08:18:19.451Z,25.01
2017-07-17T08:18:59.907Z,25.06
2017-07-17T08:19:40.371Z,25.03
2017-07-17T08:20:20.827Z,25.07
2017-07-17T08:21:01.280Z,24.99
2017-07-17T08:21:41.754Z,24.99
2017-07-17T08:22:22.203Z,25.06
2017-07-17T08:23:02.759Z,25.04
2017-07-17T08:23:43.099Z,24.97
2017-07-17T08:24:23.550Z,25.15
2017-07-17T08:26:21.596Z,25.06
2017-07-17T08:27:02.053Z,24.99
2017-07-17T08:27:42.505Z,25.04
2017-07-17T08:28:22.950Z,25.09
2017-07-17T08:29:03.409Z,25.03
2017-07-17T08:29:43.860Z,24.99
2017-07-17T08:30:24.313Z,25.04
2017-07-17T08:31:04.754Z,25.04
2017-07-17T08:31:45.202Z,25.01
2017-07-17T08:32:25.651Z,25
2017-07-17T08:33:06.099Z,25.09
2017-07-17T08:33:46.577Z,25.01
2017-07-17T08:34:27.000Z,24.99
2017-07-17T08:35:07.445Z,25.01
2017-07-17T08:35:47.889Z,25.15
2017-07-17T08:36:28.444Z,24.99
2017-07-17T08:37:08.890Z,25.15
2017-07-17T08:37:49.343Z,25.12
2017-07-17T08:38:29.808Z,25.04
2017-07-17T08:39:10.252Z,25
2017-07-17T08:39:50.702Z,25
2017-07-17T08:40:31.135Z,25.07
2017-07-17T08:41:11.582Z,25.11
2017-07-17T08:41:52.177Z,25.11
2017-07-17T08:42:32.588Z,25.15
2017-07-17T08:43:13.290Z,25.01
2017-07-17T08:43:53.501Z,25.01
2017-07-17T08:44:33.934Z,24.99
2017-07-17T08:45:14.465Z,25.03
2017-07-17T08:45:55.080Z,25.04
2017-07-17T08:46:36.269Z,25.03
2017-07-17T08:47:16.791Z,25.04
2017-07-17T08:47:57.267Z,25.06
2017-07-17T08:48:37.725Z,25.04
2017-07-17T08:49:18.174Z,25
2017-07-17T08:49:58.619Z,25.07
2017-07-17T08:50:39.059Z,25.04